createdAt,value
2017-11-11T00:00:23.190Z,0
2017-11-11T00:01:03.708Z,0
2017-11-11T00:01:44.275Z,0
2017-11-11T00:02:24.822Z,0
2017-11-11T00:03:05.361Z,0
2017-11-11T00:03:45.944Z,0
2017-11-11T00:04:26.500Z,0
2017-11-11T00:05:07.099Z,0
2017-11-11T00:05:47.664Z,0
2017-11-11T00:06:28.211Z,0
2017-11-11T00:07:08.765Z,0
2017-11-11T00:07:49.349Z,0
2017-11-11T00:08:29.870Z,0
2017-11-11T00:09:10.434Z,0
2017-11-11T00:09:50.971Z,0
2017-11-11T00:10:31.548Z,0
2017-11-11T00:11:12.168Z,0
2017-11-11T00:11:52.719Z,0
2017-11-11T00:12:33.228Z,0
2017-11-11T00:13:13.766Z,0
2017-11-11T00:13:54.326Z,0
2017-11-11T00:14:34.885Z,0
2017-11-11T00:15:15.422Z,0
2017-11-11T00:15:55.962Z,0
2017-11-11T00:16:36.502Z,0
2017-11-11T00:17:17.068Z,0
2017-11-11T00:17:57.579Z,0
2017-11-11T00:18:38.106Z,0
2017-11-11T00:19:18.647Z,0
2017-11-11T00:19:59.250Z,0
2017-11-11T00:20:39.793Z,0
2017-11-11T00:21:20.317Z,0
2017-11-11T00:22:00.857Z,0
2017-11-11T00:22:41.378Z,0
2017-11-11T00:23:21.934Z,0
2017-11-11T00:24:02.507Z,0
2017-11-11T00:24:43.084Z,0
2017-11-11T00:25:23.622Z,0
2017-11-11T00:26:04.165Z,0
2017-11-11T00:26:44.708Z,0
2017-11-11T00:27:25.213Z,0
2017-11-11T00:28:06.036Z,0
2017-11-11T00:28:46.561Z,0
2017-11-11T00:29:27.116Z,0
2017-11-11T00:30:07.666Z,0
2017-11-11T00:30:48.225Z,0
2017-11-11T00:31:28.774Z,0
2017-11-11T00:32:09.307Z,0
2017-11-11T00:32:49.870Z,0
2017-11-11T00:33:30.416Z,0
2017-11-11T00:34:11.000Z,0
2017-11-11T00:34:51.517Z,0
2017-11-11T00:35:32.563Z,0
2017-11-11T00:36:13.246Z,0
2017-11-11T00:36:54.028Z,0
2017-11-11T00:37:34.668Z,0
2017-11-11T00:38:15.131Z,0
2017-11-11T00:38:55.655Z,0
2017-11-11T00:39:36.280Z,0
2017-11-11T00:40:16.777Z,0
2017-11-11T00:40:57.332Z,0
2017-11-11T00:41:37.856Z,0
2017-11-11T00:42:18.357Z,0
2017-11-11T00:42:58.953Z,0
2017-11-11T00:43:39.499Z,0
2017-11-11T00:44:20.053Z,0
2017-11-11T00:45:00.546Z,0
2017-11-11T00:45:41.113Z,0
2017-11-11T00:46:21.701Z,0
2017-11-11T00:47:02.205Z,0
2017-11-11T00:47:42.732Z,0
2017-11-11T00:48:23.302Z,0
2017-11-11T00:49:03.973Z,0
2017-11-11T00:49:44.462Z,0
2017-11-11T00:50:25.014Z,0
2017-11-11T00:51:05.510Z,0
2017-11-11T00:51:46.048Z,0
2017-11-11T00:52:26.618Z,0
2017-11-11T00:53:07.152Z,0
2017-11-11T00:53:47.715Z,0
2017-11-11T00:54:28.222Z,0
2017-11-11T00:55:08.719Z,0
2017-11-11T00:55:49.309Z,0
2017-11-11T00:56:29.807Z,0
2017-11-11T00:57:10.354Z,0
2017-11-11T00:57:50.877Z,0
2017-11-11T00:58:31.427Z,0
2017-11-11T00:59:11.985Z,0
2017-11-11T00:59:52.531Z,0
2017-11-11T01:00:33.089Z,0
2017-11-11T01:01:13.628Z,0
2017-11-11T01:01:54.140Z,0
2017-11-11T01:02:34.677Z,0
2017-11-11T01:03:15.219Z,0
2017-11-11T01:03:55.738Z,0
2017-11-11T01:04:36.264Z,0
2017-11-11T01:05:16.806Z,0
2017-11-11T01:05:57.337Z,0
2017-11-11T01:06:37.862Z,0
2017-11-11T01:07:18.403Z,0
2017-11-11T01:07:58.939Z,0
2017-11-11T01:08:39.500Z,0
2017-11-11T01:09:20.105Z,0
2017-11-11T01:10:00.647Z,0
2017-11-11T01:10:41.185Z,0
2017-11-11T01:11:21.751Z,0
2017-11-11T01:12:02.391Z,0
2017-11-11T01:12:42.819Z,0
2017-11-11T01:13:23.380Z,0
2017-11-11T01:14:03.941Z,0
2017-11-11T01:14:44.482Z,0
2017-11-11T01:15:25.033Z,0
2017-11-11T01:16:05.562Z,0
2017-11-11T01:16:46.126Z,0
2017-11-11T01:17:26.696Z,0
2017-11-11T01:18:07.242Z,0
2017-11-11T01:18:47.803Z,0
2017-11-11T01:19:28.416Z,0
2017-11-11T01:20:08.869Z,0
2017-11-11T01:20:49.443Z,0
2017-11-11T01:21:30.018Z,0
2017-11-11T01:22:10.594Z,0
2017-11-11T01:22:51.155Z,0
2017-11-11T01:23:31.725Z,0
2017-11-11T01:24:12.283Z,0
2017-11-11T01:24:52.845Z,0
2017-11-11T01:25:33.404Z,0
2017-11-11T01:26:13.944Z,0
2017-11-11T01:26:54.484Z,0
2017-11-11T01:27:35.032Z,0
2017-11-11T01:28:15.595Z,0
2017-11-11T01:28:56.208Z,0
2017-11-11T01:29:36.715Z,0
2017-11-11T01:30:17.248Z,0
2017-11-11T01:30:57.821Z,0
2017-11-11T01:31:38.449Z,0
2017-11-11T01:32:21.239Z,0
2017-11-11T01:33:01.754Z,0
2017-11-11T01:33:42.280Z,0
2017-11-11T01:34:22.832Z,0
2017-11-11T01:35:03.516Z,0
2017-11-11T01:35:44.105Z,0
2017-11-11T01:36:24.695Z,0
2017-11-11T01:37:05.262Z,0
2017-11-11T01:37:45.782Z,0
2017-11-11T01:38:26.329Z,0
2017-11-11T01:39:06.855Z,0
2017-11-11T01:39:47.397Z,0
2017-11-11T01:40:27.957Z,0
2017-11-11T01:41:08.495Z,0
2017-11-11T01:41:49.056Z,0
2017-11-11T01:42:29.624Z,0
2017-11-11T01:43:10.194Z,0
2017-11-11T01:43:50.756Z,0
2017-11-11T01:44:31.279Z,0
2017-11-11T01:45:11.844Z,0
2017-11-11T01:45:52.376Z,0
2017-11-11T01:46:32.943Z,0
2017-11-11T01:47:13.480Z,0
2017-11-11T01:47:54.036Z,0
2017-11-11T01:48:34.587Z,0
2017-11-11T01:49:15.218Z,0
2017-11-11T01:49:55.750Z,0
2017-11-11T01:50:36.307Z,0
2017-11-11T01:51:16.900Z,0
2017-11-11T01:51:57.413Z,0
2017-11-11T01:52:37.953Z,0
2017-11-11T01:53:18.510Z,0
2017-11-11T01:53:59.060Z,0
2017-11-11T01:54:39.637Z,0
2017-11-11T01:55:20.139Z,0
2017-11-11T01:56:00.706Z,0
2017-11-11T01:56:41.215Z,0
2017-11-11T01:57:21.760Z,0
2017-11-11T01:58:02.412Z,0
2017-11-11T01:58:42.963Z,0
2017-11-11T01:59:23.612Z,0
2017-11-11T02:00:04.111Z,0
2017-11-11T02:00:44.652Z,0
2017-11-11T02:01:25.202Z,0
2017-11-11T02:02:05.761Z,0
2017-11-11T02:02:46.357Z,0
2017-11-11T02:03:26.930Z,0
2017-11-11T02:04:07.474Z,0
2017-11-11T02:04:48.021Z,0
2017-11-11T02:05:28.621Z,0
2017-11-11T02:06:09.156Z,0
2017-11-11T02:06:49.698Z,0
2017-11-11T02:07:30.271Z,0
2017-11-11T02:08:10.819Z,0
2017-11-11T02:08:51.352Z,0
2017-11-11T02:09:31.888Z,0
2017-11-11T02:10:12.431Z,0
2017-11-11T02:10:53.101Z,0
2017-11-11T02:11:33.612Z,0
2017-11-11T02:12:14.155Z,0
2017-11-11T02:12:54.778Z,0
2017-11-11T02:13:35.369Z,0
2017-11-11T02:14:15.932Z,0
2017-11-11T02:14:56.458Z,0
2017-11-11T02:15:36.999Z,0
2017-11-11T02:16:17.550Z,0
2017-11-11T02:16:58.098Z,0
2017-11-11T02:17:38.712Z,0
2017-11-11T02:18:19.253Z,0
2017-11-11T02:18:59.859Z,0
2017-11-11T02:19:40.422Z,0
2017-11-11T02:20:21.008Z,0
2017-11-11T02:21:01.557Z,0
2017-11-11T02:21:42.109Z,0
2017-11-11T02:22:22.682Z,0
2017-11-11T02:23:03.191Z,0
2017-11-11T02:23:43.762Z,0
2017-11-11T02:24:24.320Z,0
2017-11-11T02:25:04.879Z,0
2017-11-11T02:25:45.423Z,0
2017-11-11T02:26:26.000Z,0
2017-11-11T02:27:06.540Z,0
2017-11-11T02:27:47.081Z,0
2017-11-11T02:28:27.695Z,0
2017-11-11T02:29:08.258Z,0
2017-11-11T02:29:48.824Z,0
2017-11-11T02:30:29.381Z,0
2017-11-11T02:31:09.947Z,0
2017-11-11T02:31:50.614Z,0
2017-11-11T02:32:31.116Z,0
2017-11-11T02:33:11.655Z,0
2017-11-11T02:33:52.213Z,0
2017-11-11T02:34:32.766Z,0
2017-11-11T02:35:13.282Z,0
2017-11-11T02:35:53.896Z,0
2017-11-11T02:36:34.464Z,0
2017-11-11T02:37:14.994Z,0
2017-11-11T02:37:55.536Z,0
2017-11-11T02:38:36.095Z,0
2017-11-11T02:39:16.655Z,0
2017-11-11T02:39:57.226Z,0
2017-11-11T02:40:37.765Z,0
2017-11-11T02:41:18.292Z,0
2017-11-11T02:41:58.850Z,0
2017-11-11T02:42:39.423Z,0
2017-11-11T02:43:20.043Z,0
2017-11-11T02:44:00.596Z,0
2017-11-11T02:44:41.175Z,0
2017-11-11T02:45:21.707Z,0
2017-11-11T02:46:02.288Z,0
2017-11-11T02:46:42.806Z,0
2017-11-11T02:47:23.358Z,0
2017-11-11T02:48:03.916Z,0
2017-11-11T02:48:44.510Z,0
2017-11-11T02:49:25.052Z,0
2017-11-11T02:50:05.591Z,0
2017-11-11T02:50:46.369Z,0
2017-11-11T02:51:26.913Z,0
2017-11-11T02:52:07.419Z,0
2017-11-11T02:52:47.974Z,0
2017-11-11T02:53:28.544Z,0
2017-11-11T02:54:09.083Z,0
2017-11-11T02:54:49.620Z,0
2017-11-11T02:55:30.169Z,0
2017-11-11T02:56:10.725Z,0
2017-11-11T02:56:51.354Z,0
2017-11-11T02:57:31.970Z,0
2017-11-11T02:58:12.542Z,0
2017-11-11T02:58:53.066Z,0
2017-11-11T02:59:33.578Z,0
2017-11-11T03:00:14.160Z,0
2017-11-11T03:00:54.788Z,0
2017-11-11T03:01:35.276Z,0
2017-11-11T03:02:15.858Z,0
2017-11-11T03:02:56.385Z,0
2017-11-11T03:03:36.934Z,0
2017-11-11T03:04:17.483Z,0
2017-11-11T03:04:58.005Z,0
2017-11-11T03:05:38.544Z,0
2017-11-11T03:06:19.133Z,0
2017-11-11T03:06:59.680Z,0
2017-11-11T03:07:40.235Z,0
2017-11-11T03:08:20.779Z,0
2017-11-11T03:09:01.358Z,0
2017-11-11T03:09:41.912Z,0
2017-11-11T03:10:22.473Z,0
2017-11-11T03:11:03.029Z,0
2017-11-11T03:11:43.579Z,0
2017-11-11T03:12:24.150Z,0
2017-11-11T03:13:04.658Z,0
2017-11-11T03:13:45.218Z,0
2017-11-11T03:14:25.800Z,0
2017-11-11T03:15:06.394Z,0
2017-11-11T03:15:46.943Z,0
2017-11-11T03:16:27.513Z,0
2017-11-11T03:17:08.103Z,0
2017-11-11T03:17:48.621Z,0
2017-11-11T03:18:29.155Z,0
2017-11-11T03:19:09.647Z,0
2017-11-11T03:19:50.213Z,0
2017-11-11T03:20:30.775Z,0
2017-11-11T03:21:11.343Z,0
2017-11-11T03:21:51.883Z,0
2017-11-11T03:22:32.396Z,0
2017-11-11T03:23:12.924Z,0
2017-11-11T03:23:53.552Z,0
2017-11-11T03:24:34.095Z,0
2017-11-11T03:25:14.628Z,0
2017-11-11T03:25:55.177Z,0
2017-11-11T03:26:35.745Z,0
2017-11-11T03:27:16.364Z,0
2017-11-11T03:27:56.934Z,0
2017-11-11T03:28:37.491Z,0
2017-11-11T03:29:18.035Z,0
2017-11-11T03:29:58.559Z,0
2017-11-11T03:30:39.134Z,0
2017-11-11T03:31:19.707Z,0
2017-11-11T03:32:00.225Z,0
2017-11-11T03:32:40.791Z,0
2017-11-11T03:33:21.442Z,0
2017-11-11T03:34:01.991Z,0
2017-11-11T03:34:42.540Z,0
2017-11-11T03:35:23.086Z,0
2017-11-11T03:36:03.617Z,0
2017-11-11T03:36:44.176Z,0
2017-11-11T03:37:24.707Z,0
2017-11-11T03:38:05.251Z,0
2017-11-11T03:38:45.791Z,0
2017-11-11T03:39:26.345Z,0
2017-11-11T03:40:06.881Z,0
2017-11-11T03:40:47.452Z,0
2017-11-11T03:41:27.989Z,0
2017-11-11T03:42:08.552Z,0
2017-11-11T03:42:49.103Z,0
2017-11-11T03:43:29.663Z,0
2017-11-11T03:44:10.207Z,0
2017-11-11T03:44:50.749Z,0
2017-11-11T03:45:31.306Z,0
2017-11-11T03:46:11.885Z,0
2017-11-11T03:46:52.409Z,0
2017-11-11T03:47:32.965Z,0
2017-11-11T03:48:13.523Z,0
2017-11-11T03:48:54.051Z,0
2017-11-11T03:49:34.599Z,0
2017-11-11T03:50:15.149Z,0
2017-11-11T03:50:55.722Z,0
2017-11-11T03:51:36.299Z,0
2017-11-11T03:52:16.841Z,0
2017-11-11T03:52:57.399Z,0
2017-11-11T03:53:37.956Z,0
2017-11-11T03:54:18.548Z,0
2017-11-11T03:54:59.048Z,0
2017-11-11T03:55:39.604Z,0
2017-11-11T03:56:20.143Z,0
2017-11-11T03:57:00.710Z,0
2017-11-11T03:57:41.399Z,0
2017-11-11T03:58:21.965Z,0
2017-11-11T03:59:02.495Z,0
2017-11-11T03:59:43.052Z,0
2017-11-11T04:00:23.593Z,0
2017-11-11T04:01:04.099Z,0
2017-11-11T04:01:44.679Z,0
2017-11-11T04:02:25.222Z,0
2017-11-11T04:03:05.837Z,0
2017-11-11T04:03:46.331Z,0
2017-11-11T04:04:26.862Z,0
2017-11-11T04:05:07.440Z,0
2017-11-11T04:05:47.987Z,0
2017-11-11T04:06:28.544Z,0
2017-11-11T04:07:09.142Z,0
2017-11-11T04:07:49.668Z,0
2017-11-11T04:08:30.198Z,0
2017-11-11T04:09:10.770Z,0
2017-11-11T04:09:51.333Z,0
2017-11-11T04:10:31.922Z,0
2017-11-11T04:11:12.415Z,0
2017-11-11T04:11:52.920Z,0
2017-11-11T04:12:33.498Z,0
2017-11-11T04:13:14.048Z,0
2017-11-11T04:13:54.595Z,0
2017-11-11T04:14:35.151Z,0
2017-11-11T04:15:15.708Z,0
2017-11-11T04:15:56.239Z,0
2017-11-11T04:16:36.775Z,0
2017-11-11T04:17:17.305Z,0
2017-11-11T04:17:57.866Z,0
2017-11-11T04:18:38.466Z,0
2017-11-11T04:19:18.997Z,0
2017-11-11T04:19:59.577Z,0
2017-11-11T04:20:40.122Z,0
2017-11-11T04:21:20.666Z,0
2017-11-11T04:22:01.238Z,0
2017-11-11T04:22:41.805Z,0
2017-11-11T04:23:22.314Z,0
2017-11-11T04:24:03.017Z,0
2017-11-11T04:24:43.559Z,0
2017-11-11T04:25:24.111Z,0
2017-11-11T04:26:04.726Z,0
2017-11-11T04:26:45.295Z,0
2017-11-11T04:27:25.836Z,0
2017-11-11T04:28:07.176Z,0
2017-11-11T04:28:47.707Z,0
2017-11-11T04:29:28.252Z,0
2017-11-11T04:30:08.784Z,0
2017-11-11T04:30:49.353Z,0
2017-11-11T04:31:29.891Z,0
2017-11-11T04:32:10.395Z,0
2017-11-11T04:32:50.944Z,0
2017-11-11T04:33:31.532Z,0
2017-11-11T04:34:12.057Z,0
2017-11-11T04:34:52.606Z,0
2017-11-11T04:35:33.156Z,0
2017-11-11T04:36:13.714Z,0
2017-11-11T04:36:54.241Z,0
2017-11-11T04:37:34.823Z,0
2017-11-11T04:38:15.392Z,0
2017-11-11T04:38:55.900Z,0
2017-11-11T04:39:36.492Z,0
2017-11-11T04:40:17.003Z,0
2017-11-11T04:40:57.553Z,0
2017-11-11T04:41:38.106Z,0
2017-11-11T04:42:18.649Z,0
2017-11-11T04:42:59.203Z,0
2017-11-11T04:43:39.837Z,0
2017-11-11T04:44:20.410Z,0
2017-11-11T04:45:01.001Z,0
2017-11-11T04:45:41.542Z,0
2017-11-11T04:46:22.080Z,0
2017-11-11T04:47:02.677Z,0
2017-11-11T04:47:43.201Z,0
2017-11-11T04:48:23.752Z,0
2017-11-11T04:49:04.310Z,0
2017-11-11T04:49:44.869Z,0
2017-11-11T04:50:25.427Z,0
2017-11-11T04:51:06.008Z,0
2017-11-11T04:51:46.540Z,0
2017-11-11T04:52:27.102Z,0
2017-11-11T04:53:07.662Z,0
2017-11-11T04:53:48.219Z,0
2017-11-11T04:54:28.811Z,0
2017-11-11T04:55:09.305Z,0
2017-11-11T04:55:49.884Z,0
2017-11-11T04:56:30.437Z,0
2017-11-11T04:57:10.994Z,0
2017-11-11T04:57:51.564Z,0
2017-11-11T04:58:32.109Z,0
2017-11-11T04:59:12.634Z,0
2017-11-11T04:59:53.192Z,0
2017-11-11T05:00:33.782Z,0
2017-11-11T05:01:14.269Z,0
2017-11-11T05:01:54.835Z,0
2017-11-11T05:02:35.428Z,0
2017-11-11T05:03:15.972Z,0
2017-11-11T05:03:56.553Z,0
2017-11-11T05:04:37.090Z,0
2017-11-11T05:05:17.646Z,0
2017-11-11T05:05:58.274Z,0
2017-11-11T05:06:38.801Z,0
2017-11-11T05:07:19.346Z,0
2017-11-11T05:07:59.872Z,0
2017-11-11T05:08:40.496Z,0
2017-11-11T05:09:21.102Z,0
2017-11-11T05:10:01.632Z,0
2017-11-11T05:10:42.220Z,0
2017-11-11T05:11:22.738Z,0
2017-11-11T05:12:03.283Z,0
2017-11-11T05:12:43.815Z,0
2017-11-11T05:13:24.310Z,0
2017-11-11T05:14:04.871Z,0
2017-11-11T05:14:45.422Z,0
2017-11-11T05:15:25.993Z,0
2017-11-11T05:16:06.600Z,0
2017-11-11T05:16:47.108Z,0
2017-11-11T05:17:27.659Z,0
2017-11-11T05:18:08.204Z,0
2017-11-11T05:18:48.754Z,0
2017-11-11T05:19:29.308Z,0
2017-11-11T05:20:09.816Z,0
2017-11-11T05:20:50.376Z,0
2017-11-11T05:21:30.921Z,0
2017-11-11T05:22:11.470Z,0
2017-11-11T05:22:52.057Z,0
2017-11-11T05:23:32.547Z,0
2017-11-11T05:24:13.105Z,0
2017-11-11T05:24:53.640Z,0
2017-11-11T05:25:34.202Z,0
2017-11-11T05:26:14.724Z,0
2017-11-11T05:26:55.295Z,0
2017-11-11T05:27:35.838Z,0
2017-11-11T05:28:16.320Z,0
2017-11-11T05:28:56.908Z,0
2017-11-11T05:29:37.441Z,0
2017-11-11T05:30:18.033Z,0
2017-11-11T05:30:58.576Z,0
2017-11-11T05:31:39.096Z,0
2017-11-11T05:32:19.656Z,0
2017-11-11T05:33:00.281Z,0
2017-11-11T05:33:40.761Z,0
2017-11-11T05:34:21.313Z,0
2017-11-11T05:35:01.833Z,0
2017-11-11T05:35:42.408Z,0
2017-11-11T05:36:22.947Z,0
2017-11-11T05:37:03.504Z,0
2017-11-11T05:37:44.086Z,0
2017-11-11T05:38:24.622Z,0
2017-11-11T05:39:05.230Z,0
2017-11-11T05:39:45.787Z,0
2017-11-11T05:40:26.344Z,0
2017-11-11T05:41:06.905Z,0
2017-11-11T05:41:47.479Z,0
2017-11-11T05:42:28.054Z,0
2017-11-11T05:43:08.623Z,0
2017-11-11T05:43:49.153Z,0
2017-11-11T05:44:29.736Z,0
2017-11-11T05:45:10.256Z,0
2017-11-11T05:45:50.800Z,0
2017-11-11T05:46:31.397Z,0
2017-11-11T05:47:11.906Z,0
2017-11-11T05:47:52.549Z,0
2017-11-11T05:48:33.116Z,0
2017-11-11T05:49:13.643Z,0
2017-11-11T05:49:54.186Z,0
2017-11-11T05:50:34.774Z,0
2017-11-11T05:51:15.341Z,0
2017-11-11T05:51:55.850Z,0
2017-11-11T05:52:36.399Z,0
2017-11-11T05:53:16.942Z,0
2017-11-11T05:53:57.485Z,0
2017-11-11T05:54:38.149Z,0
2017-11-11T05:55:18.769Z,0
2017-11-11T05:55:59.277Z,0
2017-11-11T05:56:39.869Z,0
2017-11-11T05:57:20.414Z,0
2017-11-11T05:58:00.936Z,0
2017-11-11T05:58:41.530Z,0
2017-11-11T05:59:22.040Z,0
2017-11-11T06:00:02.603Z,0
2017-11-11T06:00:43.176Z,0
2017-11-11T06:01:23.693Z,0
2017-11-11T06:02:04.247Z,0
2017-11-11T06:02:44.821Z,0
2017-11-11T06:03:25.293Z,0
2017-11-11T06:04:05.866Z,0
2017-11-11T06:04:46.503Z,0
2017-11-11T06:05:27.057Z,0
2017-11-11T06:06:07.647Z,0
2017-11-11T06:06:48.215Z,0
2017-11-11T06:07:28.765Z,4
2017-11-11T06:08:09.302Z,4
2017-11-11T06:08:49.851Z,4
2017-11-11T06:09:30.382Z,4
2017-11-11T06:10:10.905Z,0
2017-11-11T06:10:51.427Z,0
2017-11-11T06:11:32.003Z,4
2017-11-11T06:12:12.558Z,4
2017-11-11T06:12:53.098Z,4
2017-11-11T06:13:33.710Z,4
2017-11-11T06:14:14.211Z,4
2017-11-11T06:14:54.738Z,4
2017-11-11T06:15:35.305Z,4
2017-11-11T06:16:15.880Z,8
2017-11-11T06:16:56.425Z,4
2017-11-11T06:17:36.974Z,4
2017-11-11T06:18:17.544Z,8
2017-11-11T06:18:58.055Z,8
2017-11-11T06:19:38.598Z,8
2017-11-11T06:20:19.127Z,8
2017-11-11T06:20:59.668Z,8
2017-11-11T06:21:40.205Z,12
2017-11-11T06:22:20.784Z,12
2017-11-11T06:23:01.313Z,8
2017-11-11T06:23:41.868Z,12
2017-11-11T06:24:22.349Z,12
2017-11-11T06:25:02.885Z,16
2017-11-11T06:25:43.430Z,12
2017-11-11T06:26:23.965Z,16
2017-11-11T06:27:04.670Z,16
2017-11-11T06:27:45.216Z,16
2017-11-11T06:28:25.767Z,16
2017-11-11T06:29:06.320Z,16
2017-11-11T06:29:46.907Z,16
2017-11-11T06:30:27.940Z,16
2017-11-11T06:31:08.492Z,16
2017-11-11T06:31:49.088Z,16
2017-11-11T06:32:29.586Z,16
2017-11-11T06:33:10.143Z,16
2017-11-11T06:33:50.688Z,16
2017-11-11T06:34:31.213Z,20
2017-11-11T06:36:50.513Z,28
2017-11-11T06:37:31.070Z,28
2017-11-11T06:38:11.650Z,28
2017-11-11T06:38:52.318Z,36
2017-11-11T06:40:51.737Z,52
2017-11-11T06:41:32.472Z,52
2017-11-11T06:42:13.043Z,56
2017-11-11T06:42:53.631Z,56
2017-11-11T06:43:34.381Z,60
2017-11-11T06:44:14.917Z,64
2017-11-11T06:44:55.481Z,68
2017-11-11T06:45:36.041Z,72
2017-11-11T06:46:16.581Z,80
2017-11-11T06:46:57.134Z,88
2017-11-11T06:47:37.850Z,96
2017-11-11T06:48:18.201Z,96
2017-11-11T06:48:58.779Z,104
2017-11-11T06:49:39.312Z,108
2017-11-11T06:50:19.865Z,108
2017-11-11T06:51:00.408Z,112
2017-11-11T06:51:40.974Z,120
2017-11-11T06:52:21.484Z,120
2017-11-11T06:53:05.144Z,120
2017-11-11T06:53:46.089Z,120
2017-11-11T06:56:26.984Z,140
2017-11-11T07:02:37.960Z,132
2017-11-11T07:03:28.008Z,128
2017-11-11T07:04:27.327Z,124
2017-11-11T07:05:19.755Z,128
2017-11-11T07:06:07.799Z,128
2017-11-11T07:06:56.747Z,128
2017-11-11T07:07:46.952Z,132
2017-11-11T07:08:35.144Z,132
2017-11-11T07:09:24.258Z,124
2017-11-11T07:10:12.492Z,120
2017-11-11T07:11:01.645Z,120
2017-11-11T07:11:50.453Z,120
2017-11-11T07:12:39.203Z,120
2017-11-11T07:13:28.275Z,116
2017-11-11T07:14:17.837Z,116
2017-11-11T07:15:08.056Z,124
2017-11-11T07:19:30.425Z,176
2017-11-11T07:20:19.900Z,164
2017-11-11T07:21:08.684Z,144
2017-11-11T07:21:57.639Z,152
2017-11-11T07:22:47.947Z,184
2017-11-11T07:35:37.814Z,344
2017-11-11T07:36:26.405Z,360
2017-11-11T07:37:15.586Z,376
2017-11-11T07:38:03.695Z,360
2017-11-11T07:38:52.089Z,348
2017-11-11T07:39:41.353Z,340
2017-11-11T07:40:29.708Z,356
2017-11-11T07:41:18.474Z,392
2017-11-11T07:42:07.536Z,444
2017-11-11T07:42:55.794Z,488
2017-11-11T07:43:45.094Z,468
2017-11-11T07:44:33.401Z,428
2017-11-11T07:45:22.827Z,384
2017-11-11T07:46:10.857Z,364
2017-11-11T07:46:59.795Z,356
2017-11-11T07:47:48.674Z,356
2017-11-11T07:48:37.437Z,356
2017-11-11T07:49:26.766Z,352
2017-11-11T07:50:15.363Z,328
2017-11-11T07:51:04.307Z,344
2017-11-11T07:51:52.852Z,356
2017-11-11T07:52:41.915Z,368
2017-11-11T07:53:30.358Z,380
2017-11-11T07:54:19.208Z,420
2017-11-11T07:55:07.765Z,508
2017-11-11T07:55:57.931Z,504
2017-11-11T08:00:08.484Z,608
2017-11-11T08:00:56.890Z,608
2017-11-11T08:01:49.098Z,616
2017-11-11T08:06:05.886Z,632
2017-11-11T08:07:00.696Z,632
2017-11-11T08:07:56.104Z,636
2017-11-11T08:08:44.471Z,636
2017-11-11T08:09:34.200Z,624
2017-11-11T08:10:22.798Z,640
2017-11-11T08:12:27.334Z,756
2017-11-11T08:13:14.312Z,728
2017-11-11T08:13:55.343Z,728
2017-11-11T08:14:35.907Z,764
2017-11-11T08:15:17.811Z,808
2017-11-11T08:15:58.775Z,816
2017-11-11T08:16:39.403Z,832
2017-11-11T08:17:20.019Z,876
2017-11-11T08:18:00.624Z,900
2017-11-11T08:18:41.201Z,888
2017-11-11T08:19:26.267Z,828
2017-11-11T08:20:05.517Z,804
2017-11-11T08:20:46.339Z,888
2017-11-11T08:21:28.979Z,1124
2017-11-11T08:22:10.436Z,1248
2017-11-11T08:22:51.659Z,1288
2017-11-11T08:23:33.142Z,1284
2017-11-11T08:24:16.577Z,1192
2017-11-11T08:24:59.477Z,1176
2017-11-11T08:25:43.442Z,1152
2017-11-11T08:26:26.609Z,1096
2017-11-11T08:27:07.250Z,1064
2017-11-11T08:27:47.786Z,1032
2017-11-11T08:28:28.479Z,1000
2017-11-11T08:29:10.313Z,1012
2017-11-11T08:29:52.746Z,1024
2017-11-11T08:30:33.007Z,1032
2017-11-11T08:31:13.660Z,1032
2017-11-11T08:31:54.058Z,1024
2017-11-11T08:32:34.798Z,1012
2017-11-11T08:33:15.432Z,964
2017-11-11T08:33:55.958Z,948
2017-11-11T08:34:36.468Z,952
2017-11-11T08:35:17.016Z,980
2017-11-11T08:35:57.581Z,984
2017-11-11T08:36:38.076Z,984
2017-11-11T08:37:18.931Z,940
2017-11-11T08:37:59.637Z,972
2017-11-11T08:38:40.578Z,1012
2017-11-11T08:39:21.037Z,1096
2017-11-11T08:40:01.971Z,1088
2017-11-11T08:40:43.075Z,1116
2017-11-11T08:41:23.503Z,1172
2017-11-11T08:42:04.625Z,1180
2017-11-11T08:42:45.029Z,1164
2017-11-11T08:43:25.738Z,1148
2017-11-11T08:44:10.919Z,1124
2017-11-11T08:44:52.119Z,1136
2017-11-11T08:45:32.733Z,1188
2017-11-11T08:46:13.295Z,1200
2017-11-11T08:46:53.814Z,1164
2017-11-11T08:47:34.723Z,1240
2017-11-11T08:48:15.457Z,1268
2017-11-11T08:48:55.798Z,1212
2017-11-11T08:49:38.459Z,1168
2017-11-11T08:50:19.181Z,1184
2017-11-11T08:50:59.942Z,1132
2017-11-11T08:51:40.578Z,1240
2017-11-11T08:52:25.035Z,1388
2017-11-11T08:53:07.397Z,1448
2017-11-11T08:53:48.265Z,1440
2017-11-11T08:54:29.496Z,1396
2017-11-11T08:55:10.601Z,1320
2017-11-11T08:55:53.160Z,1280
2017-11-11T08:56:40.562Z,1284
2017-11-11T08:57:24.049Z,1168
2017-11-11T08:58:05.139Z,1220
2017-11-11T09:01:53.903Z,1220
2017-11-11T09:02:37.791Z,1268
2017-11-11T09:03:18.342Z,1340
2017-11-11T09:03:59.478Z,1236
2017-11-11T09:04:42.774Z,1328
2017-11-11T09:05:29.353Z,1332
2017-11-11T09:09:40.629Z,1320
2017-11-11T09:11:48.190Z,1252
2017-11-11T09:12:36.455Z,1268
2017-11-11T09:13:25.230Z,1384
2017-11-11T09:14:14.205Z,1456
2017-11-11T09:15:04.628Z,1472
2017-11-11T09:15:53.051Z,1416
2017-11-11T09:16:42.039Z,1332
2017-11-11T09:17:31.035Z,1248
2017-11-11T09:18:19.612Z,1260
2017-11-11T09:19:08.371Z,1164
2017-11-11T09:19:57.379Z,1172
2017-11-11T09:20:45.701Z,1228
2017-11-11T09:21:33.159Z,1320
2017-11-11T09:22:23.067Z,1300
2017-11-11T09:23:11.799Z,1376
2017-11-11T09:24:00.665Z,1432
2017-11-11T09:24:49.463Z,1444
2017-11-11T09:25:37.968Z,1444
2017-11-11T09:26:28.185Z,1380
2017-11-11T09:27:18.139Z,1336
2017-11-11T09:28:06.665Z,1252
2017-11-11T09:28:50.441Z,1284
2017-11-11T09:29:30.933Z,1296
2017-11-11T09:30:11.715Z,1336
2017-11-11T09:30:52.263Z,1356
2017-11-11T09:31:33.104Z,1408
2017-11-11T09:32:13.642Z,1428
2017-11-11T09:32:54.228Z,1432
2017-11-11T09:33:34.961Z,1360
2017-11-11T09:34:16.348Z,1352
2017-11-11T09:34:56.894Z,1252
2017-11-11T09:35:37.512Z,1380
2017-11-11T09:36:18.011Z,1524
2017-11-11T09:36:58.703Z,1452
2017-11-11T09:37:41.681Z,1348
2017-11-11T09:38:29.083Z,1300
2017-11-11T09:40:50.894Z,1244
2017-11-11T09:41:39.804Z,1360
2017-11-11T09:42:28.175Z,1468
2017-11-11T09:43:17.377Z,1684
2017-11-11T09:44:06.288Z,1808
2017-11-11T09:44:54.569Z,1808
2017-11-11T09:45:43.309Z,1836
2017-11-11T09:46:32.615Z,1984
2017-11-11T09:47:21.618Z,2020
2017-11-11T09:48:10.408Z,1944
2017-11-11T09:48:59.051Z,1980
2017-11-11T09:49:45.624Z,1920
2017-11-11T09:50:26.283Z,1836
2017-11-11T09:51:06.779Z,1860
2017-11-11T09:51:47.344Z,1816
2017-11-11T09:52:27.824Z,1832
2017-11-11T09:53:08.453Z,1828
2017-11-11T09:53:49.105Z,1800
2017-11-11T09:54:29.606Z,1800
2017-11-11T09:55:10.227Z,1840
2017-11-11T09:55:50.993Z,1868
2017-11-11T09:56:31.547Z,1856
2017-11-11T09:57:12.092Z,1872
2017-11-11T09:57:52.619Z,1904
2017-11-11T09:58:33.121Z,1948
2017-11-11T09:59:13.652Z,2016
2017-11-11T09:59:54.215Z,2068
2017-11-11T10:00:35.183Z,2108
2017-11-11T10:01:15.644Z,2120
2017-11-11T10:01:57.192Z,2212
2017-11-11T10:02:37.814Z,2316
2017-11-11T10:03:18.913Z,2244
2017-11-11T10:04:00.018Z,2368
2017-11-11T10:04:43.067Z,2476
2017-11-11T10:05:27.042Z,2528
2017-11-11T10:06:07.673Z,2444
2017-11-11T10:06:48.178Z,2408
2017-11-11T10:07:28.748Z,2432
2017-11-11T10:08:09.216Z,2492
2017-11-11T10:08:49.960Z,2512
2017-11-11T10:09:30.513Z,2500
2017-11-11T10:10:11.016Z,2396
2017-11-11T10:10:51.566Z,2176
2017-11-11T10:11:32.077Z,2264
2017-11-11T10:12:12.690Z,2112
2017-11-11T10:12:53.243Z,2144
2017-11-11T10:13:33.804Z,2236
2017-11-11T10:14:14.325Z,2172
2017-11-11T10:14:54.992Z,2132
2017-11-11T10:15:35.651Z,1992
2017-11-11T10:16:16.183Z,1976
2017-11-11T10:16:57.663Z,2004
2017-11-11T10:17:38.177Z,2036
2017-11-11T10:18:18.707Z,2088
2017-11-11T10:18:59.778Z,2184
2017-11-11T10:19:40.376Z,2144
2017-11-11T10:20:20.942Z,2288
2017-11-11T10:21:01.510Z,2456
2017-11-11T10:21:42.034Z,2556
2017-11-11T10:22:22.843Z,2560
2017-11-11T10:23:03.494Z,2476
2017-11-11T10:23:44.602Z,2344
2017-11-11T10:24:25.314Z,2844
2017-11-11T10:25:07.055Z,2968
2017-11-11T10:25:47.836Z,2788
2017-11-11T10:26:28.406Z,2596
2017-11-11T10:27:09.362Z,2572
2017-11-11T10:27:49.956Z,2376
2017-11-11T10:28:30.494Z,2316
2017-11-11T10:29:11.077Z,2388
2017-11-11T10:29:51.571Z,2404
2017-11-11T10:30:32.082Z,2068
2017-11-11T10:31:12.662Z,2228
2017-11-11T10:31:53.144Z,2328
2017-11-11T10:32:33.904Z,2332
2017-11-11T10:33:14.438Z,2316
2017-11-11T10:33:54.978Z,2224
2017-11-11T10:34:35.513Z,2172
2017-11-11T10:35:16.391Z,2168
2017-11-11T10:35:56.963Z,2232
2017-11-11T10:36:42.571Z,2208
2017-11-11T10:37:28.066Z,2084
2017-11-11T10:38:08.893Z,2008
2017-11-11T10:38:49.353Z,2136
2017-11-11T10:39:29.936Z,2076
2017-11-11T10:40:10.453Z,2208